sensor_id;sensor_type;location;lat;lon;timestamp;P1;durP1;ratioP1;P2;durP2;ratioP2
69894;SDS011;57172;52.034;5.090;2022-12-10T00:01:20;53.88;;;19.75;;
69894;SDS011;57172;52.034;5.090;2022-12-10T00:03:48;54.72;;;19.20;;
69894;SDS011;57172;52.034;5.090;2022-12-10T00:06:17;46.45;;;16.95;;
69894;SDS011;57172;52.034;5.090;2022-12-10T00:08:47;75.50;;;20.05;;
69894;SDS011;57172;52.034;5.090;2022-12-10T00:11:14;62.88;;;17.10;;
69894;SDS011;57172;52.034;5.090;2022-12-10T00:13:42;44.95;;;15.35;;
69894;SDS011;57172;52.034;5.090;2022-12-10T00:16:10;62.08;;;18.85;;
69894;SDS011;57172;52.034;5.090;2022-12-10T00:18:38;50.38;;;16.20;;
69894;SDS011;57172;52.034;5.090;2022-12-10T00:21:06;62.33;;;20.05;;
69894;SDS011;57172;52.034;5.090;2022-12-10T00:23:35;48.13;;;16.77;;
69894;SDS011;57172;52.034;5.090;2022-12-10T00:26:06;47.72;;;16.48;;
69894;SDS011;57172;52.034;5.090;2022-12-10T00:28:36;67.22;;;19.70;;
69894;SDS011;57172;52.034;5.090;2022-12-10T00:31:04;63.28;;;20.45;;
69894;SDS011;57172;52.034;5.090;2022-12-10T00:33:33;59.38;;;17.98;;
69894;SDS011;57172;52.034;5.090;2022-12-10T00:36:04;73.97;;;19.63;;
69894;SDS011;57172;52.034;5.090;2022-12-10T00:38:34;61.08;;;17.98;;
69894;SDS011;57172;52.034;5.090;2022-12-10T00:41:02;144.13;;;18.90;;
69894;SDS011;57172;52.034;5.090;2022-12-10T00:43:31;94.53;;;20.08;;
69894;SDS011;57172;52.034;5.090;2022-12-10T00:45:58;63.88;;;18.73;;
69894;SDS011;57172;52.034;5.090;2022-12-10T00:48:25;89.35;;;21.02;;
69894;SDS011;57172;52.034;5.090;2022-12-10T00:50:56;66.47;;;15.70;;
69894;SDS011;57172;52.034;5.090;2022-12-10T00:53:25;88.78;;;20.52;;
69894;SDS011;57172;52.034;5.090;2022-12-10T00:55:53;100.78;;;21.23;;
69894;SDS011;57172;52.034;5.090;2022-12-10T00:58:20;63.28;;;16.45;;
69894;SDS011;57172;52.034;5.090;2022-12-10T01:00:48;84.70;;;20.10;;
69894;SDS011;57172;52.034;5.090;2022-12-10T01:03:16;81.18;;;21.45;;
69894;SDS011;57172;52.034;5.090;2022-12-10T01:05:43;82.95;;;22.90;;
69894;SDS011;57172;52.034;5.090;2022-12-10T01:08:11;61.17;;;16.20;;
69894;SDS011;57172;52.034;5.090;2022-12-10T01:10:38;84.70;;;20.27;;
69894;SDS011;57172;52.034;5.090;2022-12-10T01:13:05;79.43;;;22.17;;
69894;SDS011;57172;52.034;5.090;2022-12-10T01:15:31;107.82;;;20.25;;
69894;SDS011;57172;52.034;5.090;2022-12-10T01:18:04;67.30;;;19.25;;
69894;SDS011;57172;52.034;5.090;2022-12-10T01:20:34;75.72;;;20.10;;
69894;SDS011;57172;52.034;5.090;2022-12-10T01:23:02;89.05;;;18.13;;
69894;SDS011;57172;52.034;5.090;2022-12-10T01:25:30;77.18;;;18.52;;
69894;SDS011;57172;52.034;5.090;2022-12-10T01:27:58;79.80;;;20.95;;
69894;SDS011;57172;52.034;5.090;2022-12-10T01:30:25;100.68;;;16.60;;
69894;SDS011;57172;52.034;5.090;2022-12-10T01:32:52;80.85;;;17.58;;
69894;SDS011;57172;52.034;5.090;2022-12-10T01:35:19;78.53;;;21.45;;
69894;SDS011;57172;52.034;5.090;2022-12-10T01:37:46;104.65;;;20.92;;
69894;SDS011;57172;52.034;5.090;2022-12-10T01:40:13;99.85;;;18.15;;
69894;SDS011;57172;52.034;5.090;2022-12-10T01:42:40;177.05;;;21.05;;
69894;SDS011;57172;52.034;5.090;2022-12-10T01:45:09;106.45;;;20.45;;
69894;SDS011;57172;52.034;5.090;2022-12-10T01:47:38;105.85;;;22.30;;
69894;SDS011;57172;52.034;5.090;2022-12-10T01:50:05;173.07;;;21.38;;
69894;SDS011;57172;52.034;5.090;2022-12-10T01:52:36;173.57;;;23.02;;
69894;SDS011;57172;52.034;5.090;2022-12-10T01:55:06;125.10;;;19.05;;
69894;SDS011;57172;52.034;5.090;2022-12-10T01:57:53;142.23;;;21.25;;
69894;SDS011;57172;52.034;5.090;2022-12-10T02:00:20;231.75;;;24.40;;
69894;SDS011;57172;52.034;5.090;2022-12-10T02:02:55;124.28;;;22.73;;
69894;SDS011;57172;52.034;5.090;2022-12-10T02:05:37;115.18;;;18.60;;
69894;SDS011;57172;52.034;5.090;2022-12-10T02:08:16;182.88;;;22.73;;
69894;SDS011;57172;52.034;5.090;2022-12-10T02:11:02;103.63;;;19.40;;
69894;SDS011;57172;52.034;5.090;2022-12-10T02:13:56;133.48;;;20.50;;
69894;SDS011;57172;52.034;5.090;2022-12-10T02:16:33;179.82;;;21.55;;
69894;SDS011;57172;52.034;5.090;2022-12-10T02:22:05;160.65;;;21.05;;
69894;SDS011;57172;52.034;5.090;2022-12-10T02:24:34;240.23;;;23.15;;
69894;SDS011;57172;52.034;5.090;2022-12-10T02:29:48;200.95;;;22.85;;
69894;SDS011;57172;52.034;5.090;2022-12-10T02:32:22;217.57;;;25.15;;
69894;SDS011;57172;52.034;5.090;2022-12-10T02:34:52;197.98;;;26.10;;
69894;SDS011;57172;52.034;5.090;2022-12-10T02:37:31;150.88;;;25.50;;
69894;SDS011;57172;52.034;5.090;2022-12-10T02:40:19;76.57;;;15.55;;
69894;SDS011;57172;52.034;5.090;2022-12-10T02:42:52;191.43;;;21.65;;
69894;SDS011;57172;52.034;5.090;2022-12-10T02:45:21;290.23;;;25.25;;
69894;SDS011;57172;52.034;5.090;2022-12-10T02:47:53;169.90;;;25.45;;
69894;SDS011;57172;52.034;5.090;2022-12-10T02:50:23;147.90;;;24.30;;
69894;SDS011;57172;52.034;5.090;2022-12-10T02:52:51;226.57;;;27.33;;
69894;SDS011;57172;52.034;5.090;2022-12-10T02:55:18;147.52;;;20.30;;
69894;SDS011;57172;52.034;5.090;2022-12-10T03:01:12;222.73;;;27.17;;
69894;SDS011;57172;52.034;5.090;2022-12-10T03:04:06;144.45;;;27.60;;
69894;SDS011;57172;52.034;5.090;2022-12-10T03:07:25;154.95;;;20.83;;
69894;SDS011;57172;52.034;5.090;2022-12-10T03:09:38;277.75;;;25.67;;
69894;SDS011;57172;52.034;5.090;2022-12-10T03:12:17;230.55;;;24.10;;
69894;SDS011;57172;52.034;5.090;2022-12-10T03:14:48;277.33;;;23.52;;
69894;SDS011;57172;52.034;5.090;2022-12-10T03:17:16;322.13;;;26.83;;
69894;SDS011;57172;52.034;5.090;2022-12-10T03:19:44;233.23;;;24.65;;
69894;SDS011;57172;52.034;5.090;2022-12-10T03:22:14;334.40;;;27.77;;
69894;SDS011;57172;52.034;5.090;2022-12-10T03:24:44;417.38;;;29.23;;
69894;SDS011;57172;52.034;5.090;2022-12-10T03:27:11;347.83;;;26.05;;
69894;SDS011;57172;52.034;5.090;2022-12-10T03:29:47;326.38;;;26.92;;
69894;SDS011;57172;52.034;5.090;2022-12-10T03:32:16;199.73;;;23.40;;
69894;SDS011;57172;52.034;5.090;2022-12-10T03:34:46;345.25;;;25.65;;
69894;SDS011;57172;52.034;5.090;2022-12-10T03:37:14;359.48;;;27.42;;
69894;SDS011;57172;52.034;5.090;2022-12-10T03:39:41;208.23;;;19.05;;
69894;SDS011;57172;52.034;5.090;2022-12-10T03:42:09;359.55;;;25.15;;
69894;SDS011;57172;52.034;5.090;2022-12-10T03:44:36;334.50;;;24.95;;
69894;SDS011;57172;52.034;5.090;2022-12-10T03:47:05;299.95;;;23.95;;
69894;SDS011;57172;52.034;5.090;2022-12-10T03:49:34;310.08;;;25.50;;
69894;SDS011;57172;52.034;5.090;2022-12-10T03:52:01;180.20;;;18.20;;
69894;SDS011;57172;52.034;5.090;2022-12-10T03:54:28;289.20;;;22.95;;
69894;SDS011;57172;52.034;5.090;2022-12-10T03:56:55;243.77;;;24.25;;
69894;SDS011;57172;52.034;5.090;2022-12-10T03:59:22;270.95;;;25.63;;
69894;SDS011;57172;52.034;5.090;2022-12-10T04:01:49;290.17;;;25.45;;
69894;SDS011;57172;52.034;5.090;2022-12-10T04:04:16;302.85;;;25.13;;
69894;SDS011;57172;52.034;5.090;2022-12-10T04:06:43;256.17;;;24.88;;
69894;SDS011;57172;52.034;5.090;2022-12-10T04:09:10;186.45;;;18.67;;
69894;SDS011;57172;52.034;5.090;2022-12-10T04:11:40;119.00;;;13.70;;
69894;SDS011;57172;52.034;5.090;2022-12-10T04:14:11;201.60;;;24.55;;
69894;SDS011;57172;52.034;5.090;2022-12-10T04:16:57;232.95;;;22.98;;
69894;SDS011;57172;52.034;5.090;2022-12-10T04:19:24;133.93;;;17.70;;
69894;SDS011;57172;52.034;5.090;2022-12-10T04:21:51;282.50;;;25.67;;
69894;SDS011;57172;52.034;5.090;2022-12-10T04:24:37;287.85;;;23.77;;
69894;SDS011;57172;52.034;5.090;2022-12-10T04:27:26;281.30;;;22.63;;
69894;SDS011;57172;52.034;5.090;2022-12-10T04:29:55;193.10;;;22.38;;
69894;SDS011;57172;52.034;5.090;2022-12-10T04:32:23;187.93;;;21.85;;
69894;SDS011;57172;52.034;5.090;2022-12-10T04:34:51;234.80;;;23.83;;
69894;SDS011;57172;52.034;5.090;2022-12-10T04:37:19;188.70;;;20.25;;
69894;SDS011;57172;52.034;5.090;2022-12-10T04:39:46;305.80;;;25.25;;
69894;SDS011;57172;52.034;5.090;2022-12-10T04:42:15;299.08;;;25.65;;
69894;SDS011;57172;52.034;5.090;2022-12-10T04:44:42;187.85;;;24.73;;
69894;SDS011;57172;52.034;5.090;2022-12-10T04:47:09;176.00;;;20.83;;
69894;SDS011;57172;52.034;5.090;2022-12-10T04:49:37;392.20;;;27.13;;
69894;SDS011;57172;52.034;5.090;2022-12-10T04:52:04;194.35;;;22.63;;
69894;SDS011;57172;52.034;5.090;2022-12-10T04:54:32;278.80;;;24.60;;
69894;SDS011;57172;52.034;5.090;2022-12-10T04:57:04;187.18;;;22.42;;
69894;SDS011;57172;52.034;5.090;2022-12-10T04:59:32;128.80;;;12.15;;
69894;SDS011;57172;52.034;5.090;2022-12-10T05:01:59;280.20;;;21.48;;
69894;SDS011;57172;52.034;5.090;2022-12-10T05:04:26;178.77;;;16.25;;
69894;SDS011;57172;52.034;5.090;2022-12-10T05:06:52;189.48;;;17.08;;
69894;SDS011;57172;52.034;5.090;2022-12-10T05:09:20;135.73;;;17.80;;
69894;SDS011;57172;52.034;5.090;2022-12-10T05:11:47;203.68;;;20.58;;
69894;SDS011;57172;52.034;5.090;2022-12-10T05:14:14;131.07;;;20.30;;
69894;SDS011;57172;52.034;5.090;2022-12-10T05:16:45;194.32;;;23.02;;
69894;SDS011;57172;52.034;5.090;2022-12-10T05:19:16;156.80;;;21.65;;
69894;SDS011;57172;52.034;5.090;2022-12-10T05:21:45;139.55;;;23.35;;
69894;SDS011;57172;52.034;5.090;2022-12-10T05:24:31;232.57;;;22.88;;
69894;SDS011;57172;52.034;5.090;2022-12-10T05:26:57;141.30;;;18.95;;
69894;SDS011;57172;52.034;5.090;2022-12-10T05:29:24;145.38;;;17.05;;
69894;SDS011;57172;52.034;5.090;2022-12-10T05:31:52;201.55;;;18.70;;
69894;SDS011;57172;52.034;5.090;2022-12-10T05:34:18;213.15;;;19.30;;
69894;SDS011;57172;52.034;5.090;2022-12-10T05:36:45;163.05;;;17.92;;
69894;SDS011;57172;52.034;5.090;2022-12-10T05:39:12;182.57;;;21.35;;
69894;SDS011;57172;52.034;5.090;2022-12-10T05:41:39;208.90;;;20.33;;
69894;SDS011;57172;52.034;5.090;2022-12-10T05:44:07;158.35;;;19.35;;
69894;SDS011;57172;52.034;5.090;2022-12-10T05:46:35;244.25;;;23.33;;
69894;SDS011;57172;52.034;5.090;2022-12-10T05:49:03;193.70;;;20.10;;
69894;SDS011;57172;52.034;5.090;2022-12-10T05:51:32;216.80;;;19.85;;
69894;SDS011;57172;52.034;5.090;2022-12-10T05:54:00;178.60;;;17.08;;
69894;SDS011;57172;52.034;5.090;2022-12-10T05:56:28;107.10;;;14.15;;
69894;SDS011;57172;52.034;5.090;2022-12-10T05:58:57;212.88;;;20.27;;
69894;SDS011;57172;52.034;5.090;2022-12-10T06:01:27;95.47;;;17.38;;
69894;SDS011;57172;52.034;5.090;2022-12-10T06:03:57;89.90;;;18.23;;
69894;SDS011;57172;52.034;5.090;2022-12-10T06:06:27;112.45;;;18.33;;
69894;SDS011;57172;52.034;5.090;2022-12-10T06:08:55;118.72;;;17.90;;
69894;SDS011;57172;52.034;5.090;2022-12-10T06:11:23;77.50;;;14.05;;
69894;SDS011;57172;52.034;5.090;2022-12-10T06:13:53;82.70;;;19.67;;
69894;SDS011;57172;52.034;5.090;2022-12-10T06:16:23;169.25;;;21.35;;
69894;SDS011;57172;52.034;5.090;2022-12-10T06:18:52;140.55;;;19.67;;
69894;SDS011;57172;52.034;5.090;2022-12-10T06:21:19;140.55;;;20.98;;
69894;SDS011;57172;52.034;5.090;2022-12-10T06:23:47;99.93;;;18.27;;
69894;SDS011;57172;52.034;5.090;2022-12-10T06:26:18;125.45;;;21.85;;
69894;SDS011;57172;52.034;5.090;2022-12-10T06:28:47;91.05;;;16.88;;
69894;SDS011;57172;52.034;5.090;2022-12-10T06:31:14;187.95;;;18.52;;
69894;SDS011;57172;52.034;5.090;2022-12-10T06:33:43;158.90;;;22.58;;
69894;SDS011;57172;52.034;5.090;2022-12-10T06:36:10;157.50;;;22.30;;
69894;SDS011;57172;52.034;5.090;2022-12-10T06:38:38;126.50;;;17.30;;
69894;SDS011;57172;52.034;5.090;2022-12-10T06:41:06;62.22;;;14.13;;
69894;SDS011;57172;52.034;5.090;2022-12-10T06:43:34;119.07;;;17.65;;
69894;SDS011;57172;52.034;5.090;2022-12-10T06:46:08;107.93;;;16.55;;
69894;SDS011;57172;52.034;5.090;2022-12-10T06:48:37;180.40;;;17.98;;
69894;SDS011;57172;52.034;5.090;2022-12-10T06:51:05;213.23;;;23.35;;
69894;SDS011;57172;52.034;5.090;2022-12-10T06:53:33;211.20;;;21.70;;
69894;SDS011;57172;52.034;5.090;2022-12-10T06:56:02;162.73;;;17.88;;
69894;SDS011;57172;52.034;5.090;2022-12-10T06:58:30;156.32;;;21.88;;
69894;SDS011;57172;52.034;5.090;2022-12-10T07:01:05;227.75;;;26.00;;
69894;SDS011;57172;52.034;5.090;2022-12-10T07:04:00;101.68;;;16.60;;
69894;SDS011;57172;52.034;5.090;2022-12-10T07:06:27;145.18;;;19.63;;
69894;SDS011;57172;52.034;5.090;2022-12-10T07:08:54;137.13;;;21.52;;
69894;SDS011;57172;52.034;5.090;2022-12-10T07:11:22;134.75;;;21.55;;
69894;SDS011;57172;52.034;5.090;2022-12-10T07:13:50;138.02;;;20.67;;
69894;SDS011;57172;52.034;5.090;2022-12-10T07:16:19;140.57;;;21.88;;
69894;SDS011;57172;52.034;5.090;2022-12-10T07:18:48;96.55;;;18.52;;
69894;SDS011;57172;52.034;5.090;2022-12-10T07:21:22;56.63;;;13.90;;
69894;SDS011;57172;52.034;5.090;2022-12-10T07:23:51;151.38;;;18.33;;
69894;SDS011;57172;52.034;5.090;2022-12-10T07:26:20;134.45;;;17.98;;
69894;SDS011;57172;52.034;5.090;2022-12-10T07:28:48;125.72;;;19.95;;
69894;SDS011;57172;52.034;5.090;2022-12-10T07:31:19;163.98;;;20.60;;
69894;SDS011;57172;52.034;5.090;2022-12-10T07:33:47;126.70;;;20.80;;
69894;SDS011;57172;52.034;5.090;2022-12-10T07:36:15;101.07;;;20.75;;
69894;SDS011;57172;52.034;5.090;2022-12-10T07:38:42;138.43;;;19.02;;
69894;SDS011;57172;52.034;5.090;2022-12-10T07:41:10;120.30;;;20.60;;
69894;SDS011;57172;52.034;5.090;2022-12-10T07:43:41;85.88;;;16.85;;
69894;SDS011;57172;52.034;5.090;2022-12-10T07:48:43;132.13;;;20.38;;
69894;SDS011;57172;52.034;5.090;2022-12-10T07:51:11;81.03;;;12.43;;
69894;SDS011;57172;52.034;5.090;2022-12-10T07:53:39;64.57;;;10.68;;
69894;SDS011;57172;52.034;5.090;2022-12-10T07:56:06;102.18;;;17.48;;
69894;SDS011;57172;52.034;5.090;2022-12-10T07:58:33;108.10;;;18.55;;
69894;SDS011;57172;52.034;5.090;2022-12-10T08:01:07;129.27;;;15.63;;
69894;SDS011;57172;52.034;5.090;2022-12-10T08:03:38;133.70;;;18.30;;
69894;SDS011;57172;52.034;5.090;2022-12-10T08:06:07;131.68;;;19.90;;
69894;SDS011;57172;52.034;5.090;2022-12-10T08:08:35;140.65;;;17.50;;
69894;SDS011;57172;52.034;5.090;2022-12-10T08:11:05;92.93;;;18.05;;
69894;SDS011;57172;52.034;5.090;2022-12-10T08:13:33;69.95;;;15.57;;
69894;SDS011;57172;52.034;5.090;2022-12-10T08:16:01;153.60;;;17.27;;
69894;SDS011;57172;52.034;5.090;2022-12-10T08:18:30;89.43;;;14.88;;
69894;SDS011;57172;52.034;5.090;2022-12-10T08:20:58;107.38;;;19.73;;
69894;SDS011;57172;52.034;5.090;2022-12-10T08:23:25;109.90;;;20.30;;
69894;SDS011;57172;52.034;5.090;2022-12-10T08:25:51;72.40;;;15.48;;
69894;SDS011;57172;52.034;5.090;2022-12-10T08:28:18;91.25;;;16.08;;
69894;SDS011;57172;52.034;5.090;2022-12-10T08:30:46;74.57;;;17.05;;
69894;SDS011;57172;52.034;5.090;2022-12-10T08:33:13;110.43;;;18.15;;
69894;SDS011;57172;52.034;5.090;2022-12-10T08:35:40;120.63;;;16.77;;
69894;SDS011;57172;52.034;5.090;2022-12-10T08:38:07;82.82;;;14.20;;
69894;SDS011;57172;52.034;5.090;2022-12-10T08:40:38;57.15;;;14.05;;
69894;SDS011;57172;52.034;5.090;2022-12-10T08:43:06;106.55;;;16.85;;
69894;SDS011;57172;52.034;5.090;2022-12-10T08:45:34;87.88;;;19.58;;
69894;SDS011;57172;52.034;5.090;2022-12-10T08:48:01;90.85;;;18.65;;
69894;SDS011;57172;52.034;5.090;2022-12-10T08:50:28;60.08;;;13.88;;
69894;SDS011;57172;52.034;5.090;2022-12-10T08:52:55;110.55;;;19.48;;
69894;SDS011;57172;52.034;5.090;2022-12-10T08:55:22;61.97;;;14.55;;
69894;SDS011;57172;52.034;5.090;2022-12-10T08:57:49;80.10;;;16.88;;
69894;SDS011;57172;52.034;5.090;2022-12-10T09:00:17;82.28;;;16.20;;
69894;SDS011;57172;52.034;5.090;2022-12-10T09:02:45;94.13;;;15.75;;
69894;SDS011;57172;52.034;5.090;2022-12-10T09:05:12;100.18;;;19.70;;
69894;SDS011;57172;52.034;5.090;2022-12-10T09:07:39;71.40;;;15.68;;
69894;SDS011;57172;52.034;5.090;2022-12-10T09:10:06;55.55;;;15.40;;
69894;SDS011;57172;52.034;5.090;2022-12-10T09:12:35;50.85;;;12.68;;
69894;SDS011;57172;52.034;5.090;2022-12-10T09:15:03;68.53;;;15.77;;
69894;SDS011;57172;52.034;5.090;2022-12-10T09:17:30;86.18;;;16.65;;
69894;SDS011;57172;52.034;5.090;2022-12-10T09:19:57;29.63;;;10.63;;
69894;SDS011;57172;52.034;5.090;2022-12-10T09:22:24;74.10;;;14.85;;
69894;SDS011;57172;52.034;5.090;2022-12-10T09:24:51;98.50;;;17.80;;
69894;SDS011;57172;52.034;5.090;2022-12-10T09:27:18;72.10;;;18.02;;
69894;SDS011;57172;52.034;5.090;2022-12-10T09:29:47;90.88;;;15.90;;
69894;SDS011;57172;52.034;5.090;2022-12-10T09:32:14;88.90;;;16.08;;
69894;SDS011;57172;52.034;5.090;2022-12-10T09:34:41;93.10;;;13.27;;
69894;SDS011;57172;52.034;5.090;2022-12-10T09:37:08;26.25;;;8.50;;
69894;SDS011;57172;52.034;5.090;2022-12-10T09:39:35;82.10;;;16.00;;
69894;SDS011;57172;52.034;5.090;2022-12-10T09:47:26;68.38;;;13.73;;
69894;SDS011;57172;52.034;5.090;2022-12-10T09:50:19;71.50;;;16.83;;
69894;SDS011;57172;52.034;5.090;2022-12-10T09:52:55;113.00;;;14.30;;
69894;SDS011;57172;52.034;5.090;2022-12-10T09:55:38;94.80;;;15.18;;
69894;SDS011;57172;52.034;5.090;2022-12-10T09:58:13;87.68;;;14.73;;
69894;SDS011;57172;52.034;5.090;2022-12-10T10:01:02;127.97;;;16.08;;
69894;SDS011;57172;52.034;5.090;2022-12-10T10:03:31;91.72;;;16.08;;
69894;SDS011;57172;52.034;5.090;2022-12-10T10:06:03;81.28;;;17.48;;
69894;SDS011;57172;52.034;5.090;2022-12-10T10:08:38;61.78;;;12.52;;
69894;SDS011;57172;52.034;5.090;2022-12-10T10:11:09;109.05;;;17.42;;
69894;SDS011;57172;52.034;5.090;2022-12-10T10:13:44;86.55;;;17.50;;
69894;SDS011;57172;52.034;5.090;2022-12-10T10:21:38;80.35;;;15.90;;
69894;SDS011;57172;52.034;5.090;2022-12-10T10:24:07;80.97;;;14.68;;
69894;SDS011;57172;52.034;5.090;2022-12-10T10:26:42;100.03;;;16.10;;
69894;SDS011;57172;52.034;5.090;2022-12-10T10:29:11;62.75;;;14.98;;
69894;SDS011;57172;52.034;5.090;2022-12-10T10:31:40;104.50;;;15.52;;
69894;SDS011;57172;52.034;5.090;2022-12-10T10:34:19;69.47;;;12.35;;
69894;SDS011;57172;52.034;5.090;2022-12-10T10:36:52;118.70;;;16.95;;
69894;SDS011;57172;52.034;5.090;2022-12-10T10:39:30;66.93;;;12.52;;
69894;SDS011;57172;52.034;5.090;2022-12-10T10:41:58;74.00;;;15.95;;
69894;SDS011;57172;52.034;5.090;2022-12-10T10:44:27;103.32;;;15.70;;
69894;SDS011;57172;52.034;5.090;2022-12-10T10:47:00;63.05;;;11.95;;
69894;SDS011;57172;52.034;5.090;2022-12-10T10:49:27;53.40;;;11.93;;
69894;SDS011;57172;52.034;5.090;2022-12-10T10:52:00;61.50;;;13.55;;
69894;SDS011;57172;52.034;5.090;2022-12-10T10:54:44;70.75;;;12.73;;
69894;SDS011;57172;52.034;5.090;2022-12-10T10:57:27;74.10;;;16.08;;
69894;SDS011;57172;52.034;5.090;2022-12-10T11:00:05;69.32;;;13.68;;
69894;SDS011;57172;52.034;5.090;2022-12-10T11:02:43;71.20;;;15.75;;
69894;SDS011;57172;52.034;5.090;2022-12-10T11:05:17;38.90;;;12.40;;
69894;SDS011;57172;52.034;5.090;2022-12-10T11:08:01;62.28;;;11.90;;
69894;SDS011;57172;52.034;5.090;2022-12-10T11:10:28;41.47;;;10.00;;
69894;SDS011;57172;52.034;5.090;2022-12-10T11:15:32;65.72;;;14.07;;
69894;SDS011;57172;52.034;5.090;2022-12-10T11:18:02;68.95;;;14.30;;
69894;SDS011;57172;52.034;5.090;2022-12-10T11:20:55;62.00;;;14.70;;
69894;SDS011;57172;52.034;5.090;2022-12-10T11:23:32;68.40;;;14.75;;
69894;SDS011;57172;52.034;5.090;2022-12-10T11:34:09;51.13;;;11.98;;
69894;SDS011;57172;52.034;5.090;2022-12-10T11:36:58;52.13;;;11.95;;
69894;SDS011;57172;52.034;5.090;2022-12-10T11:39:49;33.83;;;9.48;;
69894;SDS011;57172;52.034;5.090;2022-12-10T11:42:51;68.63;;;12.80;;
69894;SDS011;57172;52.034;5.090;2022-12-10T11:50:53;49.63;;;11.57;;
69894;SDS011;57172;52.034;5.090;2022-12-10T11:53:56;48.05;;;10.75;;
69894;SDS011;57172;52.034;5.090;2022-12-10T11:56:43;49.05;;;11.50;;
69894;SDS011;57172;52.034;5.090;2022-12-10T12:13:23;59.92;;;11.05;;
69894;SDS011;57172;52.034;5.090;2022-12-10T12:16:07;64.43;;;14.85;;
69894;SDS011;57172;52.034;5.090;2022-12-10T12:18:42;49.85;;;11.73;;
69894;SDS011;57172;52.034;5.090;2022-12-10T12:21:16;48.00;;;13.13;;
69894;SDS011;57172;52.034;5.090;2022-12-10T12:23:55;60.60;;;13.70;;
69894;SDS011;57172;52.034;5.090;2022-12-10T12:29:13;44.72;;;10.57;;
69894;SDS011;57172;52.034;5.090;2022-12-10T12:32:17;37.10;;;9.05;;
69894;SDS011;57172;52.034;5.090;2022-12-10T12:37:35;34.90;;;9.98;;
69894;SDS011;57172;52.034;5.090;2022-12-10T12:40:12;60.97;;;13.20;;
69894;SDS011;57172;52.034;5.090;2022-12-10T12:45:33;52.00;;;13.55;;
69894;SDS011;57172;52.034;5.090;2022-12-10T12:48:14;44.00;;;11.38;;
69894;SDS011;57172;52.034;5.090;2022-12-10T12:50:53;41.85;;;10.63;;
69894;SDS011;57172;52.034;5.090;2022-12-10T12:53:26;53.40;;;12.13;;
69894;SDS011;57172;52.034;5.090;2022-12-10T13:04:25;75.03;;;12.90;;
69894;SDS011;57172;52.034;5.090;2022-12-10T13:13:05;67.75;;;11.85;;
69894;SDS011;57172;52.034;5.090;2022-12-10T13:15:37;49.10;;;12.95;;
69894;SDS011;57172;52.034;5.090;2022-12-10T13:20:45;49.65;;;10.88;;
69894;SDS011;57172;52.034;5.090;2022-12-10T13:25:56;54.83;;;12.55;;
69894;SDS011;57172;52.034;5.090;2022-12-10T13:36:34;70.28;;;12.32;;
69894;SDS011;57172;52.034;5.090;2022-12-10T13:41:33;82.63;;;12.75;;
69894;SDS011;57172;52.034;5.090;2022-12-10T13:47:04;34.47;;;11.80;;
69894;SDS011;57172;52.034;5.090;2022-12-10T13:49:54;54.00;;;13.10;;
69894;SDS011;57172;52.034;5.090;2022-12-10T13:52:51;61.25;;;12.60;;
69894;SDS011;57172;52.034;5.090;2022-12-10T13:55:55;55.08;;;13.60;;
69894;SDS011;57172;52.034;5.090;2022-12-10T14:01:25;67.60;;;15.02;;
69894;SDS011;57172;52.034;5.090;2022-12-10T14:06:50;62.92;;;15.32;;
69894;SDS011;57172;52.034;5.090;2022-12-10T14:09:19;73.15;;;14.48;;
69894;SDS011;57172;52.034;5.090;2022-12-10T14:11:52;86.47;;;16.88;;
69894;SDS011;57172;52.034;5.090;2022-12-10T14:14:41;66.78;;;15.18;;
69894;SDS011;57172;52.034;5.090;2022-12-10T14:17:12;77.95;;;15.23;;
69894;SDS011;57172;52.034;5.090;2022-12-10T14:19:49;86.45;;;18.02;;
69894;SDS011;57172;52.034;5.090;2022-12-10T14:22:21;63.25;;;16.45;;
69894;SDS011;57172;52.034;5.090;2022-12-10T14:24:58;63.92;;;13.38;;
69894;SDS011;57172;52.034;5.090;2022-12-10T14:27:27;49.78;;;12.05;;
69894;SDS011;57172;52.034;5.090;2022-12-10T14:29:59;67.50;;;15.63;;
69894;SDS011;57172;52.034;5.090;2022-12-10T14:32:41;88.30;;;18.33;;
69894;SDS011;57172;52.034;5.090;2022-12-10T14:35:13;78.13;;;17.35;;
69894;SDS011;57172;52.034;5.090;2022-12-10T14:37:50;75.95;;;16.33;;
69894;SDS011;57172;52.034;5.090;2022-12-10T14:40:22;80.88;;;18.17;;
69894;SDS011;57172;52.034;5.090;2022-12-10T14:42:52;71.32;;;16.23;;
69894;SDS011;57172;52.034;5.090;2022-12-10T14:48:30;74.18;;;17.17;;
69894;SDS011;57172;52.034;5.090;2022-12-10T14:51:12;42.90;;;11.38;;
69894;SDS011;57172;52.034;5.090;2022-12-10T14:53:41;67.10;;;15.95;;
69894;SDS011;57172;52.034;5.090;2022-12-10T14:56:11;65.60;;;16.13;;
69894;SDS011;57172;52.034;5.090;2022-12-10T14:58:49;76.00;;;17.75;;
69894;SDS011;57172;52.034;5.090;2022-12-10T15:01:29;78.35;;;17.20;;
69894;SDS011;57172;52.034;5.090;2022-12-10T15:04:01;76.55;;;17.23;;
69894;SDS011;57172;52.034;5.090;2022-12-10T15:06:35;81.60;;;17.65;;
69894;SDS011;57172;52.034;5.090;2022-12-10T15:09:04;87.50;;;18.35;;
69894;SDS011;57172;52.034;5.090;2022-12-10T15:11:35;66.57;;;15.55;;
69894;SDS011;57172;52.034;5.090;2022-12-10T15:14:02;88.45;;;18.13;;
69894;SDS011;57172;52.034;5.090;2022-12-10T15:16:40;51.95;;;12.55;;
69894;SDS011;57172;52.034;5.090;2022-12-10T15:19:23;69.88;;;17.52;;
69894;SDS011;57172;52.034;5.090;2022-12-10T15:22:11;76.80;;;16.38;;
69894;SDS011;57172;52.034;5.090;2022-12-10T15:24:48;70.43;;;16.05;;
69894;SDS011;57172;52.034;5.090;2022-12-10T15:27:19;90.13;;;16.70;;
69894;SDS011;57172;52.034;5.090;2022-12-10T15:29:49;61.05;;;14.80;;
69894;SDS011;57172;52.034;5.090;2022-12-10T15:32:27;56.17;;;13.70;;
69894;SDS011;57172;52.034;5.090;2022-12-10T15:34:55;73.93;;;17.40;;
69894;SDS011;57172;52.034;5.090;2022-12-10T15:37:35;70.15;;;14.90;;
69894;SDS011;57172;52.034;5.090;2022-12-10T15:40:07;66.15;;;15.30;;
69894;SDS011;57172;52.034;5.090;2022-12-10T15:42:48;60.55;;;14.40;;
69894;SDS011;57172;52.034;5.090;2022-12-10T15:45:22;52.85;;;13.65;;
69894;SDS011;57172;52.034;5.090;2022-12-10T15:47:56;48.63;;;13.20;;
69894;SDS011;57172;52.034;5.090;2022-12-10T15:50:26;76.25;;;17.10;;
69894;SDS011;57172;52.034;5.090;2022-12-10T15:52:55;88.03;;;17.95;;
69894;SDS011;57172;52.034;5.090;2022-12-10T15:55:21;67.13;;;17.38;;
69894;SDS011;57172;52.034;5.090;2022-12-10T15:57:48;79.50;;;17.10;;
69894;SDS011;57172;52.034;5.090;2022-12-10T16:00:20;76.97;;;18.02;;
69894;SDS011;57172;52.034;5.090;2022-12-10T16:05:30;132.27;;;19.80;;
69894;SDS011;57172;52.034;5.090;2022-12-10T16:10:49;97.50;;;19.67;;
69894;SDS011;57172;52.034;5.090;2022-12-10T16:13:21;52.55;;;13.00;;
69894;SDS011;57172;52.034;5.090;2022-12-10T16:16:09;84.57;;;20.00;;
69894;SDS011;57172;52.034;5.090;2022-12-10T16:18:37;85.35;;;18.48;;
69894;SDS011;57172;52.034;5.090;2022-12-10T16:21:04;111.30;;;20.35;;
69894;SDS011;57172;52.034;5.090;2022-12-10T16:23:34;106.97;;;21.02;;
69894;SDS011;57172;52.034;5.090;2022-12-10T16:26:01;70.40;;;17.48;;
69894;SDS011;57172;52.034;5.090;2022-12-10T16:28:31;46.42;;;10.90;;
69894;SDS011;57172;52.034;5.090;2022-12-10T16:30:59;90.07;;;18.88;;